sensor_id;sensor_type;location;lat;lon;timestamp;pressure;altitude;pressure_sealevel;temperature;humidity
63121;BME280;54478;48.684;20.114;2023-05-09T00:00:40;98969.34;;;6.30;100.00
63121;BME280;54478;48.684;20.114;2023-05-09T00:03:09;98955.94;;;6.19;100.00
63121;BME280;54478;48.684;20.114;2023-05-09T00:05:40;98962.13;;;6.33;100.00
63121;BME280;54478;48.684;20.114;2023-05-09T00:08:09;98958.41;;;5.95;100.00
63121;BME280;54478;48.684;20.114;2023-05-09T00:10:38;98963.94;;;5.73;100.00
63121;BME280;54478;48.684;20.114;2023-05-09T00:13:06;98966.03;;;5.37;100.00
63121;BME280;54478;48.684;20.114;2023-05-09T00:15:35;98959.72;;;5.37;100.00
63121;BME280;54478;48.684;20.114;2023-05-09T00:18:03;98966.13;;;5.78;100.00
63121;BME280;54478;48.684;20.114;2023-05-09T00:20:31;98955.84;;;6.01;100.00
63121;BME280;54478;48.684;20.114;2023-05-09T00:23:01;98957.88;;;6.00;100.00
63121;BME280;54478;48.684;20.114;2023-05-09T00:25:29;98957.41;;;6.02;100.00
63121;BME280;54478;48.684;20.114;2023-05-09T00:27:54;98948.25;;;5.60;100.00
63121;BME280;54478;48.684;20.114;2023-05-09T00:30:22;98948.44;;;5.44;100.00
63121;BME280;54478;48.684;20.114;2023-05-09T00:32:51;98950.63;;;5.49;100.00
63121;BME280;54478;48.684;20.114;2023-05-09T00:35:19;98958.00;;;5.30;100.00
63121;BME280;54478;48.684;20.114;2023-05-09T00:37:48;98953.28;;;5.18;100.00
63121;BME280;54478;48.684;20.114;2023-05-09T00:40:16;98973.22;;;5.35;100.00
63121;BME280;54478;48.684;20.114;2023-05-09T00:42:44;98971.56;;;5.37;100.00
63121;BME280;54478;48.684;20.114;2023-05-09T00:45:13;98972.13;;;5.54;100.00
63121;BME280;54478;48.684;20.114;2023-05-09T00:47:41;98971.69;;;5.34;100.00
63121;BME280;54478;48.684;20.114;2023-05-09T00:50:10;98968.16;;;5.33;100.00
63121;BME280;54478;48.684;20.114;2023-05-09T00:52:38;98972.94;;;5.42;100.00
63121;BME280;54478;48.684;20.114;2023-05-09T00:55:07;98971.78;;;5.08;100.00
63121;BME280;54478;48.684;20.114;2023-05-09T00:57:36;98975.56;;;5.01;100.00
63121;BME280;54478;48.684;20.114;2023-05-09T01:00:05;98980.75;;;5.21;100.00
63121;BME280;54478;48.684;20.114;2023-05-09T01:02:33;98969.22;;;4.66;100.00
63121;BME280;54478;48.684;20.114;2023-05-09T01:05:02;98972.72;;;4.66;100.00
63121;BME280;54478;48.684;20.114;2023-05-09T01:08:03;98981.38;;;5.03;100.00
63121;BME280;54478;48.684;20.114;2023-05-09T01:13:08;98985.53;;;4.86;100.00
63121;BME280;54478;48.684;20.114;2023-05-09T01:16:05;98975.88;;;4.90;100.00
63121;BME280;54478;48.684;20.114;2023-05-09T01:18:41;98975.97;;;5.00;100.00
63121;BME280;54478;48.684;20.114;2023-05-09T01:21:13;98972.44;;;4.38;100.00
63121;BME280;54478;48.684;20.114;2023-05-09T01:26:18;98988.19;;;4.51;100.00
63121;BME280;54478;48.684;20.114;2023-05-09T01:28:54;98995.84;;;4.94;100.00
63121;BME280;54478;48.684;20.114;2023-05-09T01:31:28;98990.09;;;5.02;100.00
63121;BME280;54478;48.684;20.114;2023-05-09T01:33:57;98994.91;;;5.23;100.00
63121;BME280;54478;48.684;20.114;2023-05-09T01:36:29;98992.66;;;5.31;100.00
63121;BME280;54478;48.684;20.114;2023-05-09T01:38:58;98987.50;;;5.20;100.00
63121;BME280;54478;48.684;20.114;2023-05-09T01:41:29;98989.41;;;5.46;100.00
63121;BME280;54478;48.684;20.114;2023-05-09T01:44:01;98971.19;;;4.78;100.00
63121;BME280;54478;48.684;20.114;2023-05-09T01:46:28;98980.28;;;5.01;100.00
63121;BME280;54478;48.684;20.114;2023-05-09T01:48:57;98974.31;;;5.02;100.00
63121;BME280;54478;48.684;20.114;2023-05-09T01:51:26;98968.06;;;5.24;100.00
63121;BME280;54478;48.684;20.114;2023-05-09T01:53:57;98964.00;;;5.16;100.00
63121;BME280;54478;48.684;20.114;2023-05-09T01:56:27;98974.19;;;5.41;100.00
63121;BME280;54478;48.684;20.114;2023-05-09T01:58:56;98971.06;;;4.82;100.00
63121;BME280;54478;48.684;20.114;2023-05-09T02:01:25;98956.03;;;4.83;100.00
63121;BME280;54478;48.684;20.114;2023-05-09T02:03:55;98974.16;;;5.19;100.00
63121;BME280;54478;48.684;20.114;2023-05-09T02:06:25;98966.91;;;5.12;100.00
63121;BME280;54478;48.684;20.114;2023-05-09T02:08:57;98970.72;;;4.92;100.00
63121;BME280;54478;48.684;20.114;2023-05-09T02:11:26;98969.69;;;4.51;100.00
63121;BME280;54478;48.684;20.114;2023-05-09T02:13:54;98972.84;;;4.75;100.00
63121;BME280;54478;48.684;20.114;2023-05-09T02:16:23;98972.09;;;4.23;100.00
63121;BME280;54478;48.684;20.114;2023-05-09T02:18:51;98977.13;;;3.86;100.00
63121;BME280;54478;48.684;20.114;2023-05-09T02:21:19;98995.78;;;4.08;100.00
63121;BME280;54478;48.684;20.114;2023-05-09T02:23:48;98986.97;;;4.13;100.00
63121;BME280;54478;48.684;20.114;2023-05-09T02:26:16;98986.34;;;4.35;100.00
63121;BME280;54478;48.684;20.114;2023-05-09T02:28:43;98995.13;;;4.04;100.00
63121;BME280;54478;48.684;20.114;2023-05-09T02:31:12;99003.88;;;4.41;100.00
63121;BME280;54478;48.684;20.114;2023-05-09T02:33:42;99003.53;;;4.52;100.00
63121;BME280;54478;48.684;20.114;2023-05-09T02:36:11;98993.59;;;4.41;100.00
63121;BME280;54478;48.684;20.114;2023-05-09T02:38:40;98993.84;;;4.21;100.00
63121;BME280;54478;48.684;20.114;2023-05-09T02:41:14;98994.25;;;4.07;100.00
63121;BME280;54478;48.684;20.114;2023-05-09T02:43:42;98999.75;;;4.07;100.00
63121;BME280;54478;48.684;20.114;2023-05-09T02:46:11;99002.31;;;4.27;100.00
63121;BME280;54478;48.684;20.114;2023-05-09T02:48:39;99007.91;;;4.10;100.00
63121;BME280;54478;48.684;20.114;2023-05-09T02:51:08;99002.09;;;4.08;100.00
63121;BME280;54478;48.684;20.114;2023-05-09T02:53:36;99003.06;;;4.15;100.00
63121;BME280;54478;48.684;20.114;2023-05-09T02:56:04;99018.16;;;3.97;100.00
63121;BME280;54478;48.684;20.114;2023-05-09T02:58:33;99008.72;;;4.50;100.00
63121;BME280;54478;48.684;20.114;2023-05-09T03:01:01;99011.69;;;4.55;100.00
63121;BME280;54478;48.684;20.114;2023-05-09T03:03:30;99006.63;;;4.54;100.00
63121;BME280;54478;48.684;20.114;2023-05-09T03:06:01;99009.50;;;4.50;100.00
63121;BME280;54478;48.684;20.114;2023-05-09T03:08:29;99007.94;;;4.23;100.00
63121;BME280;54478;48.684;20.114;2023-05-09T03:10:58;99012.91;;;4.28;100.00
63121;BME280;54478;48.684;20.114;2023-05-09T03:13:26;99013.53;;;4.07;100.00
63121;BME280;54478;48.684;20.114;2023-05-09T03:15:54;99001.44;;;3.62;100.00
63121;BME280;54478;48.684;20.114;2023-05-09T03:18:23;99018.31;;;3.77;100.00
63121;BME280;54478;48.684;20.114;2023-05-09T03:20:51;99028.88;;;4.08;100.00
63121;BME280;54478;48.684;20.114;2023-05-09T03:23:20;99014.31;;;4.07;100.00
63121;BME280;54478;48.684;20.114;2023-05-09T03:25:48;99026.69;;;4.28;100.00
63121;BME280;54478;48.684;20.114;2023-05-09T03:28:13;99007.50;;;4.25;100.00
63121;BME280;54478;48.684;20.114;2023-05-09T03:30:42;99012.91;;;4.67;100.00
63121;BME280;54478;48.684;20.114;2023-05-09T03:33:10;99004.06;;;4.59;100.00
63121;BME280;54478;48.684;20.114;2023-05-09T03:35:38;99003.97;;;4.37;100.00
63121;BME280;54478;48.684;20.114;2023-05-09T03:38:07;99000.31;;;4.53;100.00
63121;BME280;54478;48.684;20.114;2023-05-09T03:40:35;99009.59;;;4.59;100.00
63121;BME280;54478;48.684;20.114;2023-05-09T03:43:03;99004.28;;;4.78;100.00
63121;BME280;54478;48.684;20.114;2023-05-09T03:45:31;99009.28;;;5.18;100.00
63121;BME280;54478;48.684;20.114;2023-05-09T03:48:00;99009.59;;;4.72;100.00
63121;BME280;54478;48.684;20.114;2023-05-09T03:50:32;99016.00;;;4.43;100.00
63121;BME280;54478;48.684;20.114;2023-05-09T03:53:00;99014.22;;;4.11;100.00
63121;BME280;54478;48.684;20.114;2023-05-09T03:55:29;99018.31;;;4.45;100.00
63121;BME280;54478;48.684;20.114;2023-05-09T03:57:57;99022.19;;;4.60;100.00
63121;BME280;54478;48.684;20.114;2023-05-09T04:00:26;99021.25;;;4.89;100.00
63121;BME280;54478;48.684;20.114;2023-05-09T04:02:54;99020.25;;;5.09;100.00
63121;BME280;54478;48.684;20.114;2023-05-09T04:05:23;99019.97;;;4.55;100.00
63121;BME280;54478;48.684;20.114;2023-05-09T04:07:51;99008.56;;;4.92;100.00
63121;BME280;54478;48.684;20.114;2023-05-09T04:10:19;99016.41;;;4.93;100.00
63121;BME280;54478;48.684;20.114;2023-05-09T04:12:47;99008.94;;;4.68;100.00
63121;BME280;54478;48.684;20.114;2023-05-09T04:15:16;99013.88;;;4.86;100.00
63121;BME280;54478;48.684;20.114;2023-05-09T04:17:44;99019.75;;;4.75;100.00
63121;BME280;54478;48.684;20.114;2023-05-09T04:20:13;99009.69;;;4.69;100.00
63121;BME280;54478;48.684;20.114;2023-05-09T04:22:41;99016.22;;;5.10;100.00
63121;BME280;54478;48.684;20.114;2023-05-09T04:25:09;99005.84;;;4.66;100.00
63121;BME280;54478;48.684;20.114;2023-05-09T04:27:36;99032.91;;;5.19;100.00
63121;BME280;54478;48.684;20.114;2023-05-09T04:30:05;99031.00;;;5.29;100.00
63121;BME280;54478;48.684;20.114;2023-05-09T04:32:33;99017.94;;;4.94;100.00
63121;BME280;54478;48.684;20.114;2023-05-09T04:35:03;99028.84;;;4.98;100.00
63121;BME280;54478;48.684;20.114;2023-05-09T04:37:32;99016.75;;;4.83;100.00
63121;BME280;54478;48.684;20.114;2023-05-09T04:40:00;99026.47;;;5.22;100.00
63121;BME280;54478;48.684;20.114;2023-05-09T04:42:28;99028.19;;;5.42;100.00
63121;BME280;54478;48.684;20.114;2023-05-09T04:44:57;99021.50;;;4.82;100.00
63121;BME280;54478;48.684;20.114;2023-05-09T04:47:25;99019.44;;;5.08;100.00
63121;BME280;54478;48.684;20.114;2023-05-09T04:49:53;99010.91;;;4.81;100.00
63121;BME280;54478;48.684;20.114;2023-05-09T04:52:21;99026.47;;;5.22;100.00
63121;BME280;54478;48.684;20.114;2023-05-09T04:54:50;99010.97;;;5.38;100.00
63121;BME280;54478;48.684;20.114;2023-05-09T04:57:18;99020.19;;;5.22;100.00
63121;BME280;54478;48.684;20.114;2023-05-09T04:59:46;99021.22;;;5.72;100.00
63121;BME280;54478;48.684;20.114;2023-05-09T05:02:14;99015.22;;;5.96;100.00
63121;BME280;54478;48.684;20.114;2023-05-09T05:04:43;99006.88;;;6.09;100.00
63121;BME280;54478;48.684;20.114;2023-05-09T05:07:11;99000.81;;;6.23;100.00
63121;BME280;54478;48.684;20.114;2023-05-09T05:09:40;99009.72;;;6.18;100.00
63121;BME280;54478;48.684;20.114;2023-05-09T05:12:08;99008.66;;;6.66;100.00
63121;BME280;54478;48.684;20.114;2023-05-09T05:14:38;99007.97;;;6.12;100.00
63121;BME280;54478;48.684;20.114;2023-05-09T05:17:03;99000.41;;;6.03;100.00
63121;BME280;54478;48.684;20.114;2023-05-09T05:19:31;99002.22;;;6.69;100.00
63121;BME280;54478;48.684;20.114;2023-05-09T05:21:58;98997.38;;;7.19;100.00
63121;BME280;54478;48.684;20.114;2023-05-09T05:24:26;99002.63;;;7.36;100.00
63121;BME280;54478;48.684;20.114;2023-05-09T05:26:55;98988.00;;;7.07;100.00
63121;BME280;54478;48.684;20.114;2023-05-09T05:29:23;99003.25;;;7.31;100.00
63121;BME280;54478;48.684;20.114;2023-05-09T05:31:52;98990.78;;;7.54;100.00
63121;BME280;54478;48.684;20.114;2023-05-09T05:34:20;98991.19;;;7.80;100.00
63121;BME280;54478;48.684;20.114;2023-05-09T05:36:48;98997.34;;;7.75;100.00
63121;BME280;54478;48.684;20.114;2023-05-09T05:39:16;98988.31;;;8.17;100.00
63121;BME280;54478;48.684;20.114;2023-05-09T05:41:45;98985.16;;;8.43;100.00
63121;BME280;54478;48.684;20.114;2023-05-09T05:44:13;98975.19;;;8.70;100.00
63121;BME280;54478;48.684;20.114;2023-05-09T05:46:41;98969.06;;;8.90;100.00
63121;BME280;54478;48.684;20.114;2023-05-09T05:49:09;98974.94;;;8.59;100.00
63121;BME280;54478;48.684;20.114;2023-05-09T05:51:38;98961.00;;;9.16;100.00
63121;BME280;54478;48.684;20.114;2023-05-09T05:54:06;98954.56;;;9.79;100.00
63121;BME280;54478;48.684;20.114;2023-05-09T05:56:34;98964.50;;;9.41;100.00
63121;BME280;54478;48.684;20.114;2023-05-09T05:59:02;98960.88;;;9.50;100.00
63121;BME280;54478;48.684;20.114;2023-05-09T06:01:31;98957.72;;;9.72;100.00
63121;BME280;54478;48.684;20.114;2023-05-09T06:03:57;98954.16;;;10.16;100.00
63121;BME280;54478;48.684;20.114;2023-05-09T06:06:25;98964.19;;;10.59;100.00
63121;BME280;54478;48.684;20.114;2023-05-09T06:08:54;98950.78;;;10.42;100.00
63121;BME280;54478;48.684;20.114;2023-05-09T06:11:22;98951.75;;;10.39;100.00
63121;BME280;54478;48.684;20.114;2023-05-09T06:13:51;98954.88;;;10.82;100.00
63121;BME280;54478;48.684;20.114;2023-05-09T06:16:19;98948.00;;;10.42;100.00
63121;BME280;54478;48.684;20.114;2023-05-09T06:18:48;98951.81;;;11.01;100.00
63121;BME280;54478;48.684;20.114;2023-05-09T06:21:16;98947.78;;;10.81;100.00
63121;BME280;54478;48.684;20.114;2023-05-09T06:23:44;98953.44;;;10.87;100.00
63121;BME280;54478;48.684;20.114;2023-05-09T06:26:13;98948.66;;;11.14;100.00
63121;BME280;54478;48.684;20.114;2023-05-09T06:28:39;98943.69;;;11.44;100.00
63121;BME280;54478;48.684;20.114;2023-05-09T06:31:05;98931.44;;;11.36;100.00
63121;BME280;54478;48.684;20.114;2023-05-09T06:33:34;98935.97;;;11.60;100.00
63121;BME280;54478;48.684;20.114;2023-05-09T06:36:02;98934.75;;;12.25;100.00
63121;BME280;54478;48.684;20.114;2023-05-09T06:38:32;98933.28;;;12.29;100.00
63121;BME280;54478;48.684;20.114;2023-05-09T06:41:01;98921.91;;;12.39;100.00
63121;BME280;54478;48.684;20.114;2023-05-09T06:43:29;98924.50;;;12.10;100.00
63121;BME280;54478;48.684;20.114;2023-05-09T06:45:58;98925.75;;;12.41;100.00
63121;BME280;54478;48.684;20.114;2023-05-09T06:48:26;98919.84;;;12.82;100.00
63121;BME280;54478;48.684;20.114;2023-05-09T06:50:54;98905.13;;;13.71;100.00
63121;BME280;54478;48.684;20.114;2023-05-09T06:53:23;98900.25;;;13.37;100.00
63121;BME280;54478;48.684;20.114;2023-05-09T06:55:51;98894.16;;;13.44;100.00
63121;BME280;54478;48.684;20.114;2023-05-09T06:58:19;98887.44;;;13.13;100.00
63121;BME280;54478;48.684;20.114;2023-05-09T07:00:48;98895.31;;;13.15;100.00
63121;BME280;54478;48.684;20.114;2023-05-09T07:03:16;98891.34;;;13.33;100.00
63121;BME280;54478;48.684;20.114;2023-05-09T07:05:45;98891.91;;;13.65;100.00
63121;BME280;54478;48.684;20.114;2023-05-09T07:08:13;98896.25;;;13.95;100.00
63121;BME280;54478;48.684;20.114;2023-05-09T07:10:41;98897.22;;;14.09;100.00
63121;BME280;54478;48.684;20.114;2023-05-09T07:13:10;98895.66;;;14.42;100.00
63121;BME280;54478;48.684;20.114;2023-05-09T07:15:38;98893.69;;;13.74;100.00
63121;BME280;54478;48.684;20.114;2023-05-09T07:18:07;98902.13;;;14.90;100.00
63121;BME280;54478;48.684;20.114;2023-05-09T07:20:35;98888.19;;;14.73;100.00
63121;BME280;54478;48.684;20.114;2023-05-09T07:23:04;98878.78;;;14.59;100.00
63121;BME280;54478;48.684;20.114;2023-05-09T07:25:33;98879.97;;;14.86;100.00
63121;BME280;54478;48.684;20.114;2023-05-09T07:27:58;98875.81;;;14.34;100.00
63121;BME280;54478;48.684;20.114;2023-05-09T07:30:26;98881.84;;;15.61;100.00
63121;BME280;54478;48.684;20.114;2023-05-09T07:32:55;98870.66;;;15.56;100.00
63121;BME280;54478;48.684;20.114;2023-05-09T07:35:23;98878.13;;;15.48;100.00
63121;BME280;54478;48.684;20.114;2023-05-09T07:37:51;98868.03;;;15.27;100.00
63121;BME280;54478;48.684;20.114;2023-05-09T07:40:19;98869.72;;;14.24;100.00
63121;BME280;54478;48.684;20.114;2023-05-09T07:42:48;98871.56;;;15.39;100.00
63121;BME280;54478;48.684;20.114;2023-05-09T07:45:16;98862.91;;;14.90;100.00
63121;BME280;54478;48.684;20.114;2023-05-09T07:47:42;98869.72;;;16.08;100.00
63121;BME280;54478;48.684;20.114;2023-05-09T07:50:08;98853.44;;;15.71;100.00
63121;BME280;54478;48.684;20.114;2023-05-09T07:52:36;98853.97;;;15.69;100.00
63121;BME280;54478;48.684;20.114;2023-05-09T07:55:04;98865.13;;;16.36;100.00
63121;BME280;54478;48.684;20.114;2023-05-09T07:57:33;98849.53;;;15.85;100.00
63121;BME280;54478;48.684;20.114;2023-05-09T08:00:02;98853.25;;;16.68;100.00
63121;BME280;54478;48.684;20.114;2023-05-09T08:02:30;98852.09;;;16.57;100.00
63121;BME280;54478;48.684;20.114;2023-05-09T08:04:58;98850.94;;;16.91;100.00
63121;BME280;54478;48.684;20.114;2023-05-09T08:07:27;98850.44;;;16.68;100.00
63121;BME280;54478;48.684;20.114;2023-05-09T08:09:55;98850.34;;;16.98;100.00
63121;BME280;54478;48.684;20.114;2023-05-09T08:12:23;98850.56;;;16.81;100.00
63121;BME280;54478;48.684;20.114;2023-05-09T08:14:52;98857.75;;;16.76;100.00
63121;BME280;54478;48.684;20.114;2023-05-09T08:17:20;98851.84;;;16.11;100.00
63121;BME280;54478;48.684;20.114;2023-05-09T08:19:48;98853.09;;;15.86;100.00
63121;BME280;54478;48.684;20.114;2023-05-09T08:22:17;98840.25;;;15.96;100.00
63121;BME280;54478;48.684;20.114;2023-05-09T08:24:46;98841.09;;;16.59;100.00
63121;BME280;54478;48.684;20.114;2023-05-09T08:27:12;98851.13;;;16.30;100.00
63121;BME280;54478;48.684;20.114;2023-05-09T08:29:42;98838.00;;;16.63;100.00
63121;BME280;54478;48.684;20.114;2023-05-09T08:32:10;98840.44;;;16.72;100.00
63121;BME280;54478;48.684;20.114;2023-05-09T08:34:38;98836.59;;;16.51;100.00
63121;BME280;54478;48.684;20.114;2023-05-09T08:37:06;98836.38;;;16.49;100.00
63121;BME280;54478;48.684;20.114;2023-05-09T08:39:35;98843.66;;;16.57;100.00
63121;BME280;54478;48.684;20.114;2023-05-09T08:42:03;98834.38;;;15.27;100.00
63121;BME280;54478;48.684;20.114;2023-05-09T08:44:32;98849.72;;;16.86;100.00
63121;BME280;54478;48.684;20.114;2023-05-09T08:47:01;98842.34;;;16.64;100.00
63121;BME280;54478;48.684;20.114;2023-05-09T08:49:30;98845.66;;;16.43;100.00
63121;BME280;54478;48.684;20.114;2023-05-09T08:52:00;98837.22;;;16.43;100.00
63121;BME280;54478;48.684;20.114;2023-05-09T08:54:28;98830.38;;;17.02;100.00
63121;BME280;54478;48.684;20.114;2023-05-09T08:56:57;98837.56;;;17.35;100.00
63121;BME280;54478;48.684;20.114;2023-05-09T08:59:26;98833.19;;;17.21;100.00
63121;BME280;54478;48.684;20.114;2023-05-09T09:01:56;98829.00;;;17.08;100.00
63121;BME280;54478;48.684;20.114;2023-05-09T09:04:24;98830.88;;;16.81;100.00
63121;BME280;54478;48.684;20.114;2023-05-09T09:06:50;98832.41;;;17.01;100.00
63121;BME280;54478;48.684;20.114;2023-05-09T09:09:21;98824.72;;;16.83;100.00
63121;BME280;54478;48.684;20.114;2023-05-09T09:11:50;98829.38;;;17.51;100.00
63121;BME280;54478;48.684;20.114;2023-05-09T09:14:23;98820.00;;;17.62;100.00
63121;BME280;54478;48.684;20.114;2023-05-09T09:16:54;98829.59;;;17.20;100.00
63121;BME280;54478;48.684;20.114;2023-05-09T09:19:29;98813.81;;;17.63;100.00
63121;BME280;54478;48.684;20.114;2023-05-09T09:21:58;98820.19;;;16.55;100.00
63121;BME280;54478;48.684;20.114;2023-05-09T09:24:26;98813.03;;;18.62;100.00
63121;BME280;54478;48.684;20.114;2023-05-09T09:26:55;98807.16;;;18.87;100.00
63121;BME280;54478;48.684;20.114;2023-05-09T09:29:23;98814.19;;;17.40;100.00
63121;BME280;54478;48.684;20.114;2023-05-09T09:31:55;98804.88;;;17.91;100.00
63121;BME280;54478;48.684;20.114;2023-05-09T09:34:24;98803.63;;;18.19;100.00
63121;BME280;54478;48.684;20.114;2023-05-09T09:36:53;98800.88;;;18.67;100.00
63121;BME280;54478;48.684;20.114;2023-05-09T09:39:22;98789.81;;;17.62;100.00
63121;BME280;54478;48.684;20.114;2023-05-09T09:41:50;98793.47;;;18.78;100.00
63121;BME280;54478;48.684;20.114;2023-05-09T09:44:20;98793.34;;;18.22;100.00
63121;BME280;54478;48.684;20.114;2023-05-09T09:46:54;98783.75;;;17.85;100.00
63121;BME280;54478;48.684;20.114;2023-05-09T09:49:24;98794.53;;;18.13;100.00
63121;BME280;54478;48.684;20.114;2023-05-09T09:51:53;98786.50;;;18.17;100.00
63121;BME280;54478;48.684;20.114;2023-05-09T09:54:26;98792.78;;;18.23;100.00
63121;BME280;54478;48.684;20.114;2023-05-09T09:56:52;98785.75;;;18.44;100.00
63121;BME280;54478;48.684;20.114;2023-05-09T09:59:25;98785.50;;;17.88;100.00
63121;BME280;54478;48.684;20.114;2023-05-09T10:02:04;98783.03;;;18.51;100.00
63121;BME280;54478;48.684;20.114;2023-05-09T10:04:35;98785.84;;;18.99;100.00
63121;BME280;54478;48.684;20.114;2023-05-09T10:07:06;98765.47;;;19.99;100.00
63121;BME280;54478;48.684;20.114;2023-05-09T10:09:36;98771.47;;;18.28;100.00
63121;BME280;54478;48.684;20.114;2023-05-09T10:12:06;98771.94;;;17.59;100.00
63121;BME280;54478;48.684;20.114;2023-05-09T10:14:37;98777.69;;;17.67;100.00
63121;BME280;54478;48.684;20.114;2023-05-09T10:17:06;98771.00;;;18.37;100.00
63121;BME280;54478;48.684;20.114;2023-05-09T10:19:36;98767.66;;;18.87;100.00
63121;BME280;54478;48.684;20.114;2023-05-09T10:22:08;98759.44;;;18.14;100.00
63121;BME280;54478;48.684;20.114;2023-05-09T10:27:18;98765.50;;;18.32;100.00
63121;BME280;54478;48.684;20.114;2023-05-09T10:30:00;98762.53;;;18.51;100.00
63121;BME280;54478;48.684;20.114;2023-05-09T10:32:31;98754.47;;;18.68;100.00
63121;BME280;54478;48.684;20.114;2023-05-09T10:35:05;98750.50;;;17.70;100.00
63121;BME280;54478;48.684;20.114;2023-05-09T10:37:32;98751.75;;;18.89;100.00
63121;BME280;54478;48.684;20.114;2023-05-09T10:40:02;98753.00;;;18.88;100.00
63121;BME280;54478;48.684;20.114;2023-05-09T10:42:31;98752.94;;;19.36;100.00
63121;BME280;54478;48.684;20.114;2023-05-09T10:45:00;98741.75;;;19.52;100.00
63121;BME280;54478;48.684;20.114;2023-05-09T10:47:29;98744.06;;;19.32;100.00
63121;BME280;54478;48.684;20.114;2023-05-09T10:49:59;98737.56;;;20.32;100.00
63121;BME280;54478;48.684;20.114;2023-05-09T10:52:31;98737.38;;;18.53;100.00
63121;BME280;54478;48.684;20.114;2023-05-09T10:55:02;98743.34;;;19.39;100.00
63121;BME280;54478;48.684;20.114;2023-05-09T10:57:29;98734.69;;;18.47;100.00
63121;BME280;54478;48.684;20.114;2023-05-09T10:59:58;98731.09;;;19.16;100.00
63121;BME280;54478;48.684;20.114;2023-05-09T11:02:27;98733.91;;;18.60;100.00
63121;BME280;54478;48.684;20.114;2023-05-09T11:05:17;98738.00;;;18.59;100.00
63121;BME280;54478;48.684;20.114;2023-05-09T11:07:43;98731.88;;;18.47;100.00
63121;BME280;54478;48.684;20.114;2023-05-09T11:10:16;98727.72;;;18.96;100.00
63121;BME280;54478;48.684;20.114;2023-05-09T11:12:56;98721.69;;;18.92;100.00
63121;BME280;54478;48.684;20.114;2023-05-09T11:15:25;98725.34;;;18.52;100.00
63121;BME280;54478;48.684;20.114;2023-05-09T11:18:05;98723.13;;;19.06;100.00
63121;BME280;54478;48.684;20.114;2023-05-09T11:20:34;98717.72;;;17.99;100.00
63121;BME280;54478;48.684;20.114;2023-05-09T11:23:03;98724.16;;;18.61;100.00
63121;BME280;54478;48.684;20.114;2023-05-09T11:25:33;98719.34;;;18.69;100.00
63121;BME280;54478;48.684;20.114;2023-05-09T11:28:00;98713.47;;;18.19;100.00
63121;BME280;54478;48.684;20.114;2023-05-09T11:30:42;98711.59;;;18.35;100.00
63121;BME280;54478;48.684;20.114;2023-05-09T11:33:37;98711.22;;;19.21;100.00
63121;BME280;54478;48.684;20.114;2023-05-09T11:36:20;98710.25;;;18.63;100.00
63121;BME280;54478;48.684;20.114;2023-05-09T11:39:00;98710.38;;;19.34;100.00
63121;BME280;54478;48.684;20.114;2023-05-09T11:41:30;98693.19;;;19.03;100.00
63121;BME280;54478;48.684;20.114;2023-05-09T11:43:56;98700.34;;;18.70;100.00
63121;BME280;54478;48.684;20.114;2023-05-09T11:46:25;98703.44;;;19.35;100.00
63121;BME280;54478;48.684;20.114;2023-05-09T11:48:53;98705.31;;;18.77;100.00
63121;BME280;54478;48.684;20.114;2023-05-09T11:51:21;98690.84;;;19.15;100.00
63121;BME280;54478;48.684;20.114;2023-05-09T11:53:49;98689.63;;;18.68;100.00
63121;BME280;54478;48.684;20.114;2023-05-09T11:56:18;98680.13;;;18.58;100.00
63121;BME280;54478;48.684;20.114;2023-05-09T11:58:44;98685.00;;;17.96;100.00
63121;BME280;54478;48.684;20.114;2023-05-09T12:01:13;98684.69;;;18.82;100.00
63121;BME280;54478;48.684;20.114;2023-05-09T12:03:44;98687.00;;;19.05;100.00
63121;BME280;54478;48.684;20.114;2023-05-09T12:06:15;98680.44;;;19.60;100.00
63121;BME280;54478;48.684;20.114;2023-05-09T12:08:42;98679.72;;;21.31;100.00
63121;BME280;54478;48.684;20.114;2023-05-09T12:11:11;98666.94;;;23.17;100.00
63121;BME280;54478;48.684;20.114;2023-05-09T12:13:44;98662.63;;;22.49;100.00
63121;BME280;54478;48.684;20.114;2023-05-09T12:16:14;98669.16;;;21.16;100.00
63121;BME280;54478;48.684;20.114;2023-05-09T12:18:45;98660.88;;;19.91;100.00
63121;BME280;54478;48.684;20.114;2023-05-09T12:21:17;98665.97;;;19.85;100.00
63121;BME280;54478;48.684;20.114;2023-05-09T12:23:46;98669.56;;;18.93;100.00
63121;BME280;54478;48.684;20.114;2023-05-09T12:26:12;98650.28;;;18.84;100.00
63121;BME280;54478;48.684;20.114;2023-05-09T12:28:38;98651.59;;;18.83;100.00
63121;BME280;54478;48.684;20.114;2023-05-09T12:31:08;98641.22;;;18.78;100.00
63121;BME280;54478;48.684;20.114;2023-05-09T12:33:37;98639.66;;;18.69;100.00
63121;BME280;54478;48.684;20.114;2023-05-09T12:36:08;98635.16;;;18.04;100.00
63121;BME280;54478;48.684;20.114;2023-05-09T12:38:38;98633.13;;;18.74;100.00
63121;BME280;54478;48.684;20.114;2023-05-09T12:41:08;98640.00;;;19.65;100.00
63121;BME280;54478;48.684;20.114;2023-05-09T12:43:37;98633.28;;;20.13;100.00
63121;BME280;54478;48.684;20.114;2023-05-09T12:46:06;98630.63;;;21.44;100.00
63121;BME280;54478;48.684;20.114;2023-05-09T12:48:37;98621.38;;;22.15;100.00
63121;BME280;54478;48.684;20.114;2023-05-09T12:51:06;98613.03;;;23.87;100.00
63121;BME280;54478;48.684;20.114;2023-05-09T12:53:39;98595.78;;;26.19;100.00
63121;BME280;54478;48.684;20.114;2023-05-09T12:56:15;98615.69;;;20.51;100.00
63121;BME280;54478;48.684;20.114;2023-05-09T12:58:53;98614.25;;;19.11;100.00
63121;BME280;54478;48.684;20.114;2023-05-09T13:01:21;98606.41;;;20.27;100.00
63121;BME280;54478;48.684;20.114;2023-05-09T13:04:00;98610.91;;;20.23;100.00